createdAt,value
2023-02-27T00:00:14.787Z,102387.00
2023-02-27T00:02:44.243Z,102387.00
2023-02-27T00:05:14.223Z,102391.00
2023-02-27T00:07:41.329Z,102388.00
2023-02-27T00:10:09.564Z,102396.00
2023-02-27T00:12:37.897Z,102399.00
2023-02-27T00:15:15.515Z,102400.00
2023-02-27T00:17:42.603Z,102392.00
2023-02-27T00:20:11.973Z,102384.00
2023-02-27T00:22:40.066Z,102398.00
2023-02-27T00:25:07.818Z,102390.00
2023-02-27T00:27:35.296Z,102392.00
2023-02-27T00:30:02.224Z,102381.00
2023-02-27T00:32:29.412Z,102372.00
2023-02-27T00:34:56.314Z,102372.00
2023-02-27T00:37:23.086Z,102378.00
2023-02-27T00:39:50.354Z,102371.00
2023-02-27T00:42:17.144Z,102390.00
2023-02-27T00:44:43.960Z,102390.00
2023-02-27T00:47:10.708Z,102387.00
2023-02-27T00:49:37.503Z,102392.00
2023-02-27T00:52:04.440Z,102382.00
2023-02-27T00:54:31.161Z,102372.00
2023-02-27T00:56:57.943Z,102371.00
2023-02-27T00:59:24.736Z,102371.00
2023-02-27T01:01:51.495Z,102385.00
2023-02-27T01:04:18.284Z,102376.00
2023-02-27T01:06:45.090Z,102365.00
2023-02-27T01:09:11.930Z,102381.00
2023-02-27T01:11:38.765Z,102371.00
2023-02-27T01:14:05.694Z,102362.00
2023-02-27T01:16:32.622Z,102372.00
2023-02-27T01:18:59.660Z,102374.00
2023-02-27T01:21:26.751Z,102382.00
2023-02-27T01:23:53.721Z,102370.00
2023-02-27T01:26:20.613Z,102371.00
2023-02-27T01:28:47.371Z,102377.00
2023-02-27T01:31:14.349Z,102367.00
2023-02-27T01:33:41.156Z,102360.00
2023-02-27T01:36:08.291Z,102360.00
2023-02-27T01:38:35.137Z,102371.00
2023-02-27T01:41:01.975Z,102362.00
2023-02-27T01:43:28.727Z,102360.00
2023-02-27T01:45:55.625Z,102367.00
2023-02-27T01:48:26.807Z,102369.00
2023-02-27T01:51:01.574Z,102372.00
2023-02-27T01:53:30.241Z,102368.00
2023-02-27T01:56:01.909Z,102369.00
2023-02-27T01:58:28.798Z,102369.00
2023-02-27T02:00:55.701Z,102372.00
2023-02-27T02:03:26.066Z,102370.00
2023-02-27T02:05:55.710Z,102366.00
2023-02-27T02:08:24.770Z,102373.00
2023-02-27T02:10:59.653Z,102374.00
2023-02-27T02:13:26.973Z,102375.00
2023-02-27T02:16:21.533Z,102383.00
2023-02-27T02:19:22.396Z,102367.00
2023-02-27T02:22:07.775Z,102382.00
2023-02-27T02:25:12.001Z,102372.00
2023-02-27T02:27:47.835Z,102376.00
2023-02-27T02:30:51.194Z,102386.00
2023-02-27T02:33:59.604Z,102370.00
2023-02-27T02:37:03.962Z,102374.00
2023-02-27T02:39:46.321Z,102368.00
2023-02-27T02:42:38.208Z,102366.00
2023-02-27T02:45:28.110Z,102367.00
2023-02-27T02:48:13.770Z,102359.00
2023-02-27T02:50:52.711Z,102388.00
2023-02-27T02:53:42.969Z,102386.00
2023-02-27T02:56:25.020Z,102385.00
2023-02-27T02:59:08.599Z,102388.00
2023-02-27T03:01:43.632Z,102394.00
2023-02-27T03:04:25.273Z,102383.00
2023-02-27T03:07:27.298Z,102374.00
2023-02-27T03:10:03.046Z,102384.00
2023-02-27T03:12:31.597Z,102377.00
2023-02-27T03:15:05.043Z,102393.00
2023-02-27T03:17:51.653Z,102394.00
2023-02-27T03:20:24.782Z,102408.00
2023-02-27T03:22:55.885Z,102422.00
2023-02-27T03:25:25.958Z,102410.00
2023-02-27T03:27:57.510Z,102410.00
2023-02-27T03:30:45.273Z,102409.00
2023-02-27T03:33:27.158Z,102423.00
2023-02-27T03:36:37.617Z,102419.00
2023-02-27T03:39:07.289Z,102421.00
2023-02-27T03:41:45.083Z,102428.00
2023-02-27T03:44:25.828Z,102405.00
2023-02-27T03:46:52.661Z,102415.00
2023-02-27T03:49:19.741Z,102418.00
2023-02-27T03:51:46.661Z,102411.00
2023-02-27T03:54:20.881Z,102415.00
2023-02-27T03:56:57.750Z,102424.00
2023-02-27T03:59:25.883Z,102436.00
2023-02-27T04:01:53.276Z,102433.00
2023-02-27T04:04:20.021Z,102431.00
2023-02-27T04:07:22.016Z,102441.00
2023-02-27T04:10:10.247Z,102444.00
2023-02-27T04:13:08.600Z,102452.00
2023-02-27T04:15:46.925Z,102443.00
2023-02-27T04:18:51.197Z,102448.00
2023-02-27T04:21:33.021Z,102445.00
2023-02-27T04:24:11.767Z,102441.00
2023-02-27T04:26:55.400Z,102450.00
2023-02-27T04:29:28.064Z,102447.00
2023-02-27T04:32:11.627Z,102452.00
2023-02-27T04:34:42.423Z,102451.00
2023-02-27T04:37:20.148Z,102452.00
2023-02-27T04:40:11.401Z,102472.00
2023-02-27T04:42:40.737Z,102458.00
2023-02-27T04:45:10.025Z,102459.00
2023-02-27T04:47:59.016Z,102458.00
2023-02-27T04:50:33.075Z,102469.00
2023-02-27T04:53:11.400Z,102468.00
2023-02-27T04:55:43.875Z,102475.00
2023-02-27T04:58:30.722Z,102482.00
2023-02-27T05:01:05.231Z,102474.00
2023-02-27T05:03:40.936Z,102484.00
2023-02-27T05:06:08.636Z,102478.00
2023-02-27T05:09:04.661Z,102474.00
2023-02-27T05:11:42.845Z,102480.00
2023-02-27T05:14:15.522Z,102486.00
2023-02-27T05:16:50.410Z,102482.00
2023-02-27T05:19:17.754Z,102489.00
2023-02-27T05:22:05.194Z,102488.00
2023-02-27T05:24:47.081Z,102487.00
2023-02-27T05:27:18.911Z,102479.00
2023-02-27T05:29:48.406Z,102494.00
2023-02-27T05:32:27.944Z,102490.00
2023-02-27T05:35:11.053Z,102502.00
2023-02-27T05:37:55.388Z,102500.00
2023-02-27T05:40:27.920Z,102497.00
2023-02-27T05:43:48.262Z,102495.00
2023-02-27T05:46:20.453Z,102504.00
2023-02-27T05:49:00.094Z,102506.00
2023-02-27T05:51:29.212Z,102516.00
2023-02-27T05:54:32.767Z,102510.00
2023-02-27T05:56:59.840Z,102508.00
2023-02-27T05:59:35.438Z,102531.00
2023-02-27T06:02:02.257Z,102539.00
2023-02-27T06:04:29.116Z,102529.00
2023-02-27T06:06:57.168Z,102543.00
2023-02-27T06:09:23.942Z,102540.00
2023-02-27T06:11:50.709Z,102550.00
2023-02-27T06:14:17.477Z,102539.00
2023-02-27T06:16:44.296Z,102530.00
2023-02-27T06:19:11.108Z,102553.00
2023-02-27T06:21:37.894Z,102552.00
2023-02-27T06:24:04.804Z,102547.00
2023-02-27T06:26:31.571Z,102532.00
2023-02-27T06:28:58.389Z,102548.00
2023-02-27T06:31:25.225Z,102547.00
2023-02-27T06:33:52.116Z,102548.00
2023-02-27T06:36:18.876Z,102561.00
2023-02-27T06:38:45.618Z,102564.00
2023-02-27T06:41:12.340Z,102567.00
2023-02-27T06:43:39.150Z,102574.00
2023-02-27T06:46:06.045Z,102567.00
2023-02-27T06:48:32.934Z,102561.00
2023-02-27T06:50:59.673Z,102583.00
2023-02-27T06:53:26.486Z,102583.00
2023-02-27T06:55:53.244Z,102571.00
2023-02-27T06:58:20.153Z,102597.00
2023-02-27T07:00:47.105Z,102583.00
2023-02-27T07:03:14.079Z,102595.00
2023-02-27T07:05:42.012Z,102586.00
2023-02-27T07:08:09.724Z,102587.00
2023-02-27T07:10:36.680Z,102585.00
2023-02-27T07:13:03.463Z,102598.00
2023-02-27T07:15:30.337Z,102591.00
2023-02-27T07:18:15.295Z,102601.00
2023-02-27T07:20:52.889Z,102597.00
2023-02-27T07:23:51.121Z,102602.00
2023-02-27T07:26:39.357Z,102583.00
2023-02-27T07:34:59.181Z,102599.00
2023-02-27T07:43:40.762Z,102605.00
2023-02-27T07:46:29.982Z,102601.00
2023-02-27T07:49:08.014Z,102603.00
2023-02-27T07:51:43.054Z,102609.00
2023-02-27T07:54:19.239Z,102625.00
2023-02-27T07:56:51.879Z,102625.00
2023-02-27T07:59:27.040Z,102607.00
2023-02-27T08:02:08.858Z,102612.00
2023-02-27T08:04:52.074Z,102613.00
2023-02-27T08:07:30.721Z,102600.00
2023-02-27T08:10:08.619Z,102613.00
2023-02-27T08:15:44.880Z,102586.00
2023-02-27T08:18:23.102Z,102605.00
2023-02-27T08:21:00.440Z,102620.00
2023-02-27T08:23:55.415Z,102625.00
2023-02-27T08:26:25.774Z,102606.00
2023-02-27T08:29:00.279Z,102600.00
2023-02-27T08:31:48.793Z,102607.00
2023-02-27T08:34:27.701Z,102612.00
2023-02-27T08:37:02.243Z,102612.00
2023-02-27T08:39:32.211Z,102602.00
2023-02-27T08:42:08.499Z,102600.00
2023-02-27T08:44:51.504Z,102598.00
2023-02-27T08:47:24.247Z,102616.00
2023-02-27T08:49:56.424Z,102608.00
2023-02-27T08:52:35.548Z,102610.00
2023-02-27T08:55:16.288Z,102607.00
2023-02-27T08:57:51.513Z,102610.00
2023-02-27T09:00:23.564Z,102599.00
2023-02-27T09:03:00.384Z,102609.00
2023-02-27T09:05:35.636Z,102605.00
2023-02-27T09:08:08.401Z,102590.00
2023-02-27T09:10:47.402Z,102588.00
2023-02-27T09:13:22.971Z,102589.00
2023-02-27T09:15:56.118Z,102606.00
2023-02-27T09:18:27.507Z,102587.00
2023-02-27T09:21:01.611Z,102595.00
2023-02-27T09:23:28.442Z,102593.00
2023-02-27T09:26:01.447Z,102607.00
2023-02-27T09:28:38.431Z,102613.00
2023-02-27T09:31:11.502Z,102604.00
2023-02-27T09:33:50.847Z,102616.00
2023-02-27T09:36:30.585Z,102620.00
2023-02-27T09:39:04.164Z,102625.00
2023-02-27T09:41:48.824Z,102629.00
2023-02-27T09:44:39.858Z,102635.00
2023-02-27T09:47:24.998Z,102627.00
2023-02-27T09:50:07.780Z,102656.00
2023-02-27T09:52:37.370Z,102647.00
2023-02-27T09:55:23.330Z,102658.00
2023-02-27T09:57:56.352Z,102666.00
2023-02-27T10:00:40.242Z,102666.00
2023-02-27T10:03:55.237Z,102682.00
2023-02-27T10:06:30.702Z,102685.00
2023-02-27T10:09:15.874Z,102686.00
2023-02-27T10:12:04.890Z,102695.00
2023-02-27T10:14:47.100Z,102693.00
2023-02-27T10:17:28.403Z,102689.00
2023-02-27T10:19:56.441Z,102686.00
2023-02-27T10:22:33.615Z,102709.00
2023-02-27T10:25:29.825Z,102704.00
2023-02-27T10:28:09.068Z,102724.00
2023-02-27T10:30:36.249Z,102725.00
2023-02-27T10:33:11.596Z,102721.00
2023-02-27T10:35:40.558Z,102722.00
2023-02-27T10:38:14.435Z,102738.00
2023-02-27T10:40:42.463Z,102728.00
2023-02-27T10:43:13.135Z,102733.00
2023-02-27T10:45:39.893Z,102740.00
2023-02-27T10:48:09.259Z,102743.00
2023-02-27T10:50:39.280Z,102737.00
2023-02-27T10:53:25.849Z,102743.00
2023-02-27T10:56:02.241Z,102754.00
2023-02-27T10:58:37.007Z,102762.00
2023-02-27T11:01:06.507Z,102771.00
2023-02-27T11:03:37.711Z,102772.00
2023-02-27T11:06:10.261Z,102773.00
2023-02-27T11:08:48.475Z,102776.00
2023-02-27T11:11:33.211Z,102759.00
2023-02-27T11:14:15.051Z,102766.00
2023-02-27T11:17:09.950Z,102764.00
2023-02-27T11:19:55.251Z,102747.00
2023-02-27T11:22:30.780Z,102736.00
2023-02-27T11:29:06.751Z,102760.00
2023-02-27T11:31:42.324Z,102775.00
2023-02-27T11:34:29.423Z,102778.00
2023-02-27T11:40:03.347Z,102773.00
2023-02-27T11:42:51.377Z,102799.00
2023-02-27T11:46:04.732Z,102788.00
2023-02-27T11:48:35.182Z,102799.00
2023-02-27T11:51:12.325Z,102810.00
2023-02-27T11:53:52.447Z,102798.00
2023-02-27T11:57:11.100Z,102822.00
2023-02-27T11:59:48.219Z,102823.00
2023-02-27T12:02:41.218Z,102833.00
2023-02-27T12:05:21.095Z,102824.00
2023-02-27T12:08:09.224Z,102811.00
2023-02-27T12:10:50.765Z,102802.00
2023-02-27T12:13:23.129Z,102818.00
2023-02-27T12:16:05.557Z,102828.00
2023-02-27T12:18:47.857Z,102813.00
2023-02-27T12:21:33.995Z,102818.00
2023-02-27T12:24:45.182Z,102795.00
2023-02-27T12:27:36.417Z,102827.00
2023-02-27T12:30:21.233Z,102835.00
2023-02-27T12:33:14.138Z,102849.00
2023-02-27T12:35:43.293Z,102850.00
2023-02-27T12:38:13.359Z,102845.00
2023-02-27T12:40:48.691Z,102817.00
2023-02-27T12:43:42.358Z,102814.00
2023-02-27T12:46:23.512Z,102822.00
2023-02-27T12:48:57.322Z,102825.00
2023-02-27T12:51:57.663Z,102836.00
2023-02-27T12:54:34.151Z,102834.00
2023-02-27T12:57:33.190Z,102829.00
2023-02-27T13:00:12.490Z,102840.00
2023-02-27T13:03:02.398Z,102851.00
2023-02-27T13:05:29.978Z,102857.00
2023-02-27T13:08:18.737Z,102854.00
2023-02-27T13:10:49.430Z,102863.00
2023-02-27T13:13:17.872Z,102860.00
2023-02-27T13:15:53.521Z,102857.00
2023-02-27T13:18:37.107Z,102845.00
2023-02-27T13:21:42.481Z,102867.00
2023-02-27T13:24:26.353Z,102849.00
2023-02-27T13:26:56.344Z,102829.00
2023-02-27T13:29:24.893Z,102848.00
2023-02-27T13:32:15.201Z,102848.00
2023-02-27T13:34:50.045Z,102859.00
2023-02-27T13:37:17.102Z,102863.00
2023-02-27T13:39:44.556Z,102849.00
2023-02-27T13:42:26.893Z,102847.00
2023-02-27T13:44:55.144Z,102850.00
2023-02-27T13:47:31.010Z,102856.00
2023-02-27T13:50:02.910Z,102857.00
2023-02-27T13:52:37.806Z,102847.00
2023-02-27T13:55:25.898Z,102875.00
2023-02-27T13:57:58.723Z,102863.00
2023-02-27T14:00:30.279Z,102861.00
2023-02-27T14:03:09.631Z,102842.00
2023-02-27T14:05:43.007Z,102839.00
2023-02-27T14:08:29.839Z,102850.00
2023-02-27T14:11:00.398Z,102858.00
2023-02-27T14:13:45.900Z,102829.00
2023-02-27T14:16:33.553Z,102842.00
2023-02-27T14:19:04.135Z,102853.00
2023-02-27T14:21:49.721Z,102864.00
2023-02-27T14:24:17.820Z,102834.00
2023-02-27T14:26:47.705Z,102853.00
2023-02-27T14:29:18.256Z,102854.00
2023-02-27T14:31:46.235Z,102871.00
2023-02-27T14:34:15.939Z,102867.00
2023-02-27T14:36:50.815Z,102869.00
2023-02-27T14:39:28.593Z,102858.00
2023-02-27T14:42:26.933Z,102865.00
2023-02-27T14:44:54.238Z,102868.00
2023-02-27T14:47:37.749Z,102871.00
2023-02-27T14:50:07.815Z,102881.00
2023-02-27T14:52:43.113Z,102876.00
2023-02-27T14:55:23.066Z,102879.00
2023-02-27T14:58:12.236Z,102862.00
2023-02-27T15:00:50.922Z,102843.00
2023-02-27T15:03:45.132Z,102843.00
2023-02-27T15:06:30.614Z,102862.00
2023-02-27T15:08:58.218Z,102866.00
2023-02-27T15:11:25.437Z,102857.00
2023-02-27T15:14:06.082Z,102852.00
2023-02-27T15:16:40.400Z,102845.00
2023-02-27T15:19:17.059Z,102836.00
2023-02-27T15:21:50.217Z,102818.00
2023-02-27T15:24:35.250Z,102819.00
2023-02-27T15:27:11.016Z,102827.00
2023-02-27T15:29:50.383Z,102843.00
2023-02-27T15:32:19.699Z,102827.00
2023-02-27T15:34:47.503Z,102822.00
2023-02-27T15:37:27.593Z,102818.00
2023-02-27T15:39:54.778Z,102812.00
2023-02-27T15:42:26.338Z,102792.00
2023-02-27T15:44:53.508Z,102796.00
2023-02-27T15:47:26.720Z,102793.00
2023-02-27T15:50:07.845Z,102806.00
2023-02-27T15:52:43.424Z,102789.00
2023-02-27T15:55:15.128Z,102794.00
2023-02-27T15:57:56.772Z,102814.00
2023-02-27T16:00:30.827Z,102779.00
2023-02-27T16:02:58.666Z,102763.00
2023-02-27T16:05:35.885Z,102769.00
2023-02-27T16:08:05.586Z,102784.00
2023-02-27T16:10:40.779Z,102764.00
2023-02-27T16:13:42.563Z,102768.00
2023-02-27T16:16:21.814Z,102750.00
2023-02-27T16:18:57.770Z,102739.00
2023-02-27T16:21:31.185Z,102755.00
2023-02-27T16:24:22.403Z,102760.00
2023-02-27T16:26:52.107Z,102758.00
2023-02-27T16:29:22.818Z,102746.00
2023-02-27T16:31:55.549Z,102764.00
2023-02-27T16:34:45.227Z,102763.00
2023-02-27T16:37:40.637Z,102737.00
2023-02-27T16:40:26.059Z,102737.00
2023-02-27T16:42:53.444Z,102708.00
2023-02-27T16:45:26.378Z,102721.00
2023-02-27T16:47:58.517Z,102718.00
2023-02-27T16:50:25.750Z,102724.00
2023-02-27T16:52:52.717Z,102717.00
2023-02-27T16:55:20.246Z,102722.00
2023-02-27T16:57:47.233Z,102722.00
2023-02-27T17:00:16.676Z,102709.00
2023-02-27T17:02:43.768Z,102711.00
2023-02-27T17:05:11.449Z,102717.00
2023-02-27T17:07:39.021Z,102721.00
2023-02-27T17:10:07.097Z,102737.00
2023-02-27T17:12:34.326Z,102732.00
2023-02-27T17:15:01.978Z,102726.00
2023-02-27T17:17:28.721Z,102714.00
2023-02-27T17:19:55.692Z,102718.00
2023-02-27T17:22:22.430Z,102719.00
2023-02-27T17:24:49.635Z,102719.00
2023-02-27T17:27:34.581Z,102717.00
2023-02-27T17:30:12.925Z,102724.00
2023-02-27T17:32:46.362Z,102724.00
2023-02-27T17:35:16.407Z,102716.00
2023-02-27T17:40:35.293Z,102706.00
2023-02-27T17:43:39.146Z,102690.00
2023-02-27T17:46:25.742Z,102681.00
2023-02-27T17:48:53.997Z,102682.00
2023-02-27T17:51:20.815Z,102692.00
2023-02-27T17:53:47.654Z,102691.00
2023-02-27T17:56:14.597Z,102702.00
2023-02-27T17:58:45.239Z,102717.00
2023-02-27T18:01:25.025Z,102703.00
2023-02-27T18:03:54.292Z,102695.00
2023-02-27T18:06:21.447Z,102696.00
2023-02-27T18:08:48.963Z,102699.00
2023-02-27T18:11:28.897Z,102700.00
2023-02-27T18:14:03.785Z,102698.00
2023-02-27T18:16:40.339Z,102695.00
2023-02-27T18:19:16.370Z,102702.00
2023-02-27T18:24:39.630Z,102706.00
2023-02-27T18:27:06.512Z,102707.00
2023-02-27T18:29:33.373Z,102709.00
2023-02-27T18:32:00.371Z,102706.00
2023-02-27T18:34:29.396Z,102715.00
2023-02-27T18:36:58.179Z,102713.00
2023-02-27T18:39:25.250Z,102692.00
2023-02-27T18:41:53.021Z,102708.00
2023-02-27T18:44:19.848Z,102693.00
2023-02-27T18:46:46.632Z,102705.00
2023-02-27T18:49:15.808Z,102700.00
2023-02-27T18:51:44.561Z,102706.00
2023-02-27T18:54:13.290Z,102717.00
2023-02-27T18:56:41.232Z,102718.00
2023-02-27T18:59:08.108Z,102719.00
2023-02-27T19:01:37.515Z,102714.00
2023-02-27T19:04:06.417Z,102702.00
2023-02-27T19:06:35.539Z,102711.00
2023-02-27T19:09:05.246Z,102695.00
2023-02-27T19:11:37.227Z,102694.00
2023-02-27T19:14:06.899Z,102702.00
2023-02-27T19:16:34.927Z,102704.00
2023-02-27T19:19:03.083Z,102679.00
2023-02-27T19:21:29.938Z,102688.00
2023-02-27T19:23:56.996Z,102689.00
2023-02-27T19:26:25.059Z,102705.00
2023-02-27T19:28:53.853Z,102700.00
2023-02-27T19:31:23.440Z,102707.00
2023-02-27T19:33:50.410Z,102698.00
2023-02-27T19:36:18.680Z,102715.00
2023-02-27T19:38:45.973Z,102721.00
2023-02-27T19:41:14.175Z,102738.00
2023-02-27T19:43:41.453Z,102733.00
2023-02-27T19:46:13.998Z,102717.00
2023-02-27T19:48:41.220Z,102707.00
2023-02-27T19:51:10.538Z,102695.00
2023-02-27T19:53:38.798Z,102700.00
2023-02-27T19:56:07.857Z,102724.00
2023-02-27T19:58:36.167Z,102735.00
2023-02-27T20:01:04.070Z,102737.00
2023-02-27T20:03:31.524Z,102757.00
2023-02-27T20:05:58.721Z,102736.00
2023-02-27T20:08:25.611Z,102722.00
2023-02-27T20:11:00.744Z,102739.00
2023-02-27T20:13:28.100Z,102718.00
2023-02-27T20:16:03.576Z,102706.00
2023-02-27T20:18:31.194Z,102709.00
2023-02-27T20:21:06.685Z,102716.00
2023-02-27T20:23:35.377Z,102716.00
2023-02-27T20:26:12.109Z,102719.00
2023-02-27T20:28:39.358Z,102717.00
2023-02-27T20:31:13.602Z,102726.00
2023-02-27T20:33:42.003Z,102730.00
2023-02-27T20:36:10.410Z,102734.00
2023-02-27T20:38:39.226Z,102740.00
2023-02-27T20:41:17.938Z,102748.00
2023-02-27T20:43:45.784Z,102739.00
2023-02-27T20:46:19.859Z,102742.00
2023-02-27T20:48:51.035Z,102742.00
2023-02-27T20:51:23.220Z,102738.00
2023-02-27T20:53:55.846Z,102726.00
2023-02-27T20:56:25.721Z,102717.00
2023-02-27T20:58:52.900Z,102722.00
2023-02-27T21:01:20.288Z,102731.00
2023-02-27T21:03:50.335Z,102721.00
2023-02-27T21:06:18.507Z,102712.00
2023-02-27T21:08:51.234Z,102718.00
2023-02-27T21:11:27.201Z,102729.00
2023-02-27T21:13:55.801Z,102728.00
2023-02-27T21:16:24.997Z,102727.00
2023-02-27T21:18:53.157Z,102732.00
2023-02-27T21:21:23.064Z,102719.00
2023-02-27T21:23:50.430Z,102717.00
2023-02-27T21:26:23.715Z,102717.00
2023-02-27T21:28:55.239Z,102708.00
2023-02-27T21:31:24.207Z,102727.00
2023-02-27T21:33:52.486Z,102709.00
2023-02-27T21:36:31.319Z,102718.00
2023-02-27T21:39:00.308Z,102720.00
2023-02-27T21:41:28.232Z,102715.00
2023-02-27T21:44:02.899Z,102701.00
2023-02-27T21:46:30.096Z,102696.00
2023-02-27T21:48:57.190Z,102692.00
2023-02-27T21:51:38.794Z,102681.00
2023-02-27T21:54:07.053Z,102697.00
2023-02-27T21:56:33.882Z,102690.00
2023-02-27T21:59:01.702Z,102677.00
2023-02-27T22:01:29.454Z,102671.00
2023-02-27T22:03:57.325Z,102674.00
2023-02-27T22:06:26.552Z,102660.00
2023-02-27T22:08:57.596Z,102659.00
2023-02-27T22:11:25.723Z,102680.00
2023-02-27T22:13:52.613Z,102678.00
2023-02-27T22:16:20.030Z,102677.00
2023-02-27T22:18:47.890Z,102675.00
2023-02-27T22:21:18.437Z,102683.00
2023-02-27T22:23:46.218Z,102683.00
2023-02-27T22:26:15.076Z,102692.00
2023-02-27T22:28:41.987Z,102700.00
2023-02-27T22:31:17.101Z,102700.00
2023-02-27T22:33:45.860Z,102699.00
2023-02-27T22:36:15.201Z,102702.00
2023-02-27T22:38:42.862Z,102700.00
2023-02-27T22:41:12.559Z,102700.00
2023-02-27T22:43:39.881Z,102700.00
2023-02-27T22:46:10.355Z,102714.00
2023-02-27T22:48:37.637Z,102725.00
2023-02-27T22:51:07.248Z,102726.00
2023-02-27T22:53:38.709Z,102713.00
2023-02-27T22:56:11.336Z,102726.00
2023-02-27T22:58:39.127Z,102731.00
2023-02-27T23:01:17.710Z,102727.00
2023-02-27T23:03:46.073Z,102717.00
2023-02-27T23:06:15.689Z,102724.00
2023-02-27T23:08:42.621Z,102730.00
2023-02-27T23:11:10.361Z,102743.00
2023-02-27T23:13:37.589Z,102741.00
2023-02-27T23:16:11.608Z,102742.00
2023-02-27T23:18:39.866Z,102745.00
2023-02-27T23:21:07.658Z,102746.00
2023-02-27T23:23:34.505Z,102745.00
2023-02-27T23:26:03.014Z,102735.00
2023-02-27T23:28:31.019Z,102746.00
2023-02-27T23:30:59.698Z,102750.00
2023-02-27T23:33:27.770Z,102743.00
2023-02-27T23:35:55.403Z,102735.00
2023-02-27T23:38:22.337Z,102756.00
2023-02-27T23:40:58.178Z,102752.00
2023-02-27T23:43:36.956Z,102753.00
2023-02-27T23:46:15.106Z,102748.00
2023-02-27T23:48:45.331Z,102762.00
2023-02-27T23:51:45.624Z,102758.00
